.
WxDataArchive / Data Records for 2009-09-10
2009-09-09 September 2009 2009-09-11

Data Records for Thursday, 10 September 2009

Time	Temp	Chill	HIndex	Humid	Dewpt	 Wind 	HiWind	WindDir	Rain 	Barom 
-----	----	-----	------	-----	-----	------	------	-------	-----	----- 
00:00	65.0	65.0	65.0	90	62.0	0	0	---	0.00	30.179 
00:05	65.0	65.0	65.0	90	62.0	0	1	112	0.00	30.179 
00:10	64.8	64.8	64.8	91	62.1	0	0	---	0.00	30.179 
00:15	64.7	64.7	64.7	91	62.0	0	0	---	0.00	30.171 
00:20	64.5	64.5	64.5	91	61.8	0	1	112	0.00	30.171 
00:25	64.5	64.5	64.5	92	62.1	0	0	---	0.00	30.171 
00:30	64.5	64.5	64.5	92	62.1	0	1	112	0.00	30.171 
00:35	64.5	64.5	64.5	92	62.1	0	0	---	0.00	30.171 
00:40	64.5	64.5	64.5	92	62.1	0	1	112	0.00	30.171 
00:45	64.7	64.7	64.7	92	62.3	0	1	112	0.00	30.172 
00:50	64.5	64.5	64.5	92	62.1	0	1	112	0.00	30.172 
00:55	64.7	64.7	64.7	92	62.3	0	1	112	0.00	30.172 
01:00	64.7	64.7	64.7	92	62.3	0	0	---	0.00	30.170 
01:05	64.7	64.7	64.7	92	62.3	0	2	112	0.00	30.170 
01:10	64.7	64.7	64.7	92	62.3	0	2	112	0.00	30.170 
01:15	64.7	64.7	64.7	92	62.3	0	2	112	0.00	30.171 
01:20	64.5	64.5	64.5	92	62.1	0	1	112	0.00	30.171 
01:25	64.3	64.3	64.3	92	61.9	0	1	112	0.00	30.171 
01:30	64.2	64.2	64.2	92	61.8	0	1	112	0.00	30.171 
01:35	64.2	64.2	64.2	93	62.1	0	1	112	0.00	30.171 
01:40	64.2	64.2	64.2	93	62.1	0	2	112	0.00	30.171 
01:45	64.0	64.0	64.0	93	61.9	0	2	112	0.00	30.169 
01:50	64.0	64.0	64.0	93	61.9	0	3	112	0.00	30.169 
01:55	63.9	63.9	63.9	93	61.8	0	1	112	0.00	30.169 
02:00	63.9	63.9	63.9	93	61.8	0	1	112	0.00	30.171 
02:05	63.9	63.9	63.9	94	62.1	0	2	112	0.00	30.171 
02:10	63.9	63.9	63.9	94	62.1	0	2	112	0.00	30.171 
02:15	63.9	63.9	63.9	94	62.1	0	1	112	0.00	30.171 
02:20	63.7	63.7	63.7	94	61.9	0	1	112	0.00	30.171 
02:25	63.5	63.5	63.5	94	61.7	0	1	112	0.00	30.171 
02:30	63.4	63.4	63.4	94	61.6	0	1	112	0.00	30.165 
02:35	63.4	63.4	63.4	94	61.6	0	3	112	0.00	30.165 
02:40	63.4	63.4	63.4	94	61.6	0	2	112	0.00	30.165 
02:45	63.2	63.2	63.2	94	61.4	0	1	112	0.00	30.161 
02:50	63.2	63.2	63.2	95	61.7	0	2	112	0.00	30.161 
02:55	63.1	63.1	63.1	95	61.6	0	1	112	0.00	30.161 
03:00	62.9	62.9	62.9	95	61.4	0	1	112	0.00	30.163 
03:05	62.9	62.9	62.9	95	61.4	0	1	112	0.00	30.163 
03:10	62.9	62.9	62.9	95	61.4	0	2	112	0.00	30.163 
03:15	62.7	62.7	62.7	95	61.2	0	2	112	0.00	30.166 
03:20	62.7	62.7	62.7	95	61.2	0	0	---	0.00	30.166 
03:25	62.6	62.6	62.6	95	61.1	0	0	---	0.00	30.166 
03:30	62.4	62.4	62.4	95	60.9	0	0	---	0.00	30.175 
03:35	62.3	62.3	62.3	95	60.8	0	0	---	0.00	30.175 
03:40	62.1	62.1	62.1	95	60.6	0	0	---	0.00	30.175 
03:45	62.1	62.1	62.1	95	60.6	0	0	---	0.00	30.175 
03:50	62.1	62.1	62.1	95	60.6	0	0	---	0.00	30.175 
03:55	62.1	62.1	62.1	95	60.6	0	1	112	0.00	30.175 
04:00	62.3	62.3	62.3	95	60.8	0	1	112	0.00	30.172 
04:05	62.3	62.3	62.3	96	61.1	0	0	---	0.00	30.172 
04:10	62.3	62.3	62.3	96	61.1	0	0	---	0.00	30.172 
04:15	62.1	62.1	62.1	96	60.9	0	0	---	0.00	30.174 
04:20	62.0	62.0	62.0	95	60.5	0	0	---	0.00	30.174 
04:25	61.8	61.8	61.8	95	60.3	0	0	---	0.00	30.174 
04:30	61.6	61.6	61.6	96	60.4	0	1	112	0.00	30.175 
04:35	61.6	61.6	61.6	96	60.4	0	0	---	0.00	30.175 
04:40	61.6	61.6	61.6	96	60.4	0	0	---	0.00	30.175 
04:45	61.6	61.6	61.6	96	60.4	0	1	112	0.00	30.177 
04:50	61.6	61.6	61.6	96	60.4	0	1	112	0.00	30.177 
04:55	61.8	61.8	61.8	96	60.6	0	1	112	0.00	30.177 
05:00	61.8	61.8	61.8	96	60.6	0	0	---	0.00	30.177 
05:05	61.8	61.8	61.8	96	60.6	0	1	112	0.00	30.177 
05:10	61.8	61.8	61.8	96	60.6	0	0	---	0.00	30.177 
05:15	61.8	61.8	61.8	96	60.6	0	0	---	0.00	30.180 
05:20	61.6	61.6	61.6	96	60.4	0	0	---	0.00	30.180 
05:25	61.6	61.6	61.6	96	60.4	0	0	---	0.00	30.180 
05:30	61.5	61.5	61.5	96	60.3	0	0	---	0.00	30.190 
05:35	61.3	61.3	61.3	96	60.1	0	0	---	0.00	30.190 
05:40	61.2	61.2	61.2	96	60.0	0	0	---	0.00	30.190 
05:45	61.0	61.0	61.0	96	59.8	0	0	---	0.00	30.191 
05:50	60.9	60.9	60.9	96	59.7	0	2	112	0.00	30.191 
05:55	61.0	61.0	61.0	96	59.8	0	0	---	0.00	30.191 
06:00	61.2	61.2	61.2	96	60.0	0	1	112	0.00	30.190 
06:05	61.3	61.3	61.3	96	60.1	0	1	112	0.00	30.190 
06:10	61.6	61.6	61.6	96	60.4	0	1	112	0.00	30.190 
06:15	61.6	61.6	61.6	96	60.4	0	2	112	0.00	30.189 
06:20	61.8	61.8	61.8	96	60.6	0	2	112	0.00	30.189 
06:25	61.8	61.8	61.8	96	60.6	0	3	112	0.00	30.189 
06:30	61.8	61.8	61.8	96	60.6	0	1	112	0.00	30.191 
06:35	61.6	61.6	61.6	96	60.4	0	1	112	0.00	30.191 
06:40	61.6	61.6	61.6	96	60.4	0	2	112	0.00	30.191 
06:45	61.5	61.5	61.5	96	60.3	0	2	112	0.00	30.193 
06:50	61.5	61.5	61.5	96	60.3	0	1	112	0.00	30.193 
06:55	61.3	61.3	61.3	96	60.1	0	1	112	0.00	30.193 
07:00	61.2	61.2	61.2	96	60.0	0	2	112	0.00	30.195 
07:05	61.2	61.2	61.2	96	60.0	0	1	112	0.00	30.195 
07:10	61.0	61.0	61.0	96	59.8	0	0	---	0.00	30.195 
07:15	61.0	61.0	61.0	96	59.8	0	0	---	0.00	30.210 
07:20	60.9	60.9	60.9	96	59.7	0	0	---	0.00	30.210 
07:25	60.7	60.7	60.7	96	59.6	0	1	112	0.00	30.210 
07:30	60.7	60.7	60.7	96	59.6	0	0	---	0.00	30.213 
07:35	60.7	60.7	60.7	96	59.6	0	0	---	0.00	30.213 
07:40	60.9	60.9	60.9	96	59.7	0	1	112	0.00	30.213 
07:45	61.0	61.0	61.0	96	59.8	0	2	112	0.00	30.223 
07:50	61.2	61.2	61.2	96	60.0	1	3	112	0.00	30.223 
07:55	61.3	61.3	61.3	96	60.1	1	4	112	0.00	30.223 
08:00	61.3	61.3	61.3	96	60.1	0	2	112	0.00	30.225 
08:05	61.5	61.5	61.5	96	60.3	0	1	112	0.00	30.225 
08:10	61.6	61.6	61.6	96	60.4	0	1	112	0.00	30.225 
08:15	61.8	61.8	61.8	96	60.6	1	4	112	0.00	30.226 
08:20	62.0	62.0	62.0	96	60.8	1	3	112	0.00	30.226 
08:25	62.0	62.0	62.0	96	60.8	1	3	112	0.00	30.226 
08:30	62.1	62.1	62.1	96	60.9	1	4	112	0.00	30.229 
08:35	62.3	62.3	62.3	96	61.1	0	3	112	0.00	30.229 
08:40	62.3	62.3	62.3	96	61.1	1	3	112	0.00	30.229 
08:45	62.3	62.3	62.3	96	61.1	2	5	135	0.00	30.228 
08:50	62.4	62.4	62.4	96	61.2	1	4	112	0.00	30.228 
08:55	62.6	62.6	62.6	95	61.1	1	4	112	0.00	30.228 
09:00	62.7	62.7	62.7	95	61.2	1	4	112	0.00	30.228 
09:05	62.9	62.9	62.9	95	61.4	0	3	112	0.00	30.228 
09:10	63.1	63.1	63.1	94	61.3	2	4	112	0.00	30.228 
09:15	63.2	63.2	63.2	93	61.1	2	5	90	0.00	30.231 
09:20	63.4	63.4	63.4	93	61.3	2	5	90	0.00	30.231 
09:25	63.7	63.7	63.7	92	61.3	2	5	112	0.00	30.231 
09:30	64.0	64.0	64.0	92	61.6	2	5	112	0.00	30.235 
09:35	64.3	64.3	64.3	91	61.6	1	3	90	0.00	30.235 
09:40	64.7	64.7	64.7	90	61.7	2	7	112	0.00	30.235 
09:45	64.8	64.8	64.8	89	61.5	2	4	112	0.00	30.234 
09:50	65.3	65.3	65.3	89	62.0	2	7	112	0.00	30.234 
09:55	65.3	65.3	65.3	87	61.3	3	5	112	0.00	30.234 
10:00	65.6	65.6	65.6	87	61.6	3	5	112	0.00	30.236 
10:05	66.3	66.3	66.3	86	62.0	1	4	90	0.00	30.236 
10:10	66.8	66.8	66.8	85	62.1	2	6	90	0.00	30.236 
10:15	67.1	67.1	67.1	83	61.8	2	5	90	0.00	30.238 
10:20	67.3	67.3	67.3	83	62.0	3	6	90	0.00	30.238 
10:25	67.6	67.6	67.6	83	62.2	2	6	90	0.00	30.238 
10:30	67.8	67.8	67.8	82	62.1	4	9	90	0.00	30.238 
10:35	67.9	67.9	67.9	83	62.5	2	6	90	0.00	30.238 
10:40	68.4	68.4	68.4	81	62.3	2	6	90	0.00	30.238 
10:45	69.1	69.1	69.1	80	62.7	1	4	90	0.00	30.239 
10:50	69.4	69.4	69.4	79	62.6	2	6	90	0.00	30.239 
10:55	70.1	70.1	70.1	79	63.3	1	4	112	0.00	30.239 
11:00	70.4	70.4	70.4	77	62.8	2	4	112	0.00	30.238 
11:05	70.8	70.8	70.8	77	63.2	2	5	112	0.00	30.238 
11:10	71.3	71.3	71.3	76	63.3	1	4	90	0.00	30.238 
11:15	71.1	71.1	71.1	74	62.4	3	7	90	0.00	30.237 
11:20	71.3	71.3	71.3	76	63.3	2	6	90	0.00	30.237 
11:25	71.6	71.6	71.6	76	63.6	1	5	112	0.00	30.237 
11:30	71.8	71.8	71.8	73	62.7	3	7	90	0.00	30.235 
11:35	72.1	72.1	72.1	73	63.0	3	7	112	0.00	30.235 
11:40	72.3	72.3	72.3	73	63.1	3	7	112	0.00	30.235 
11:45	72.5	72.5	72.5	75	64.1	3	6	112	0.00	30.232 
11:50	72.8	72.8	72.8	72	63.2	3	8	90	0.00	30.232 
11:55	73.0	73.0	73.0	72	63.4	3	8	90	0.00	30.232 
12:00	72.8	72.8	72.8	73	63.6	2	6	90	0.00	30.229 
12:05	72.8	72.8	72.8	72	63.2	3	5	90	0.00	30.229 
12:10	72.8	72.8	72.8	72	63.2	3	6	90	0.00	30.229 
12:15	73.0	73.0	73.0	70	62.6	3	7	90	0.00	30.228 
12:20	73.3	73.3	73.3	70	62.9	3	7	90	0.00	30.228 
12:25	73.3	73.3	73.3	69	62.5	3	12	112	0.00	30.228 
12:30	73.2	73.2	73.2	70	62.8	4	12	90	0.00	30.230 
12:35	73.3	73.3	73.3	70	62.9	3	7	90	0.00	30.230 
12:40	73.7	73.7	73.7	68	62.5	3	11	112	0.00	30.230 
12:45	74.2	74.2	74.2	69	63.4	2	5	112	0.00	30.227 
12:50	74.7	74.7	74.7	68	63.4	2	9	90	0.00	30.227 
12:55	74.9	74.9	74.9	65	62.3	3	10	90	0.00	30.227 
13:00	75.1	75.1	77.2	64	62.1	2	8	112	0.00	30.225 
13:05	75.3	75.3	77.3	65	62.7	2	6	90	0.00	30.225 
13:10	75.1	75.1	77.2	64	62.1	3	7	90	0.00	30.225 
13:15	74.9	74.9	74.9	64	61.9	3	9	90	0.00	30.227 
13:20	75.3	75.3	77.2	66	63.1	2	6	90	0.00	30.227 
13:25	75.8	75.8	77.7	65	63.2	2	5	90	0.00	30.227 
13:30	76.1	76.1	78.0	62	62.1	2	6	90	0.00	30.223 
13:35	76.7	76.7	78.5	63	63.1	2	4	90	0.00	30.223 
13:40	76.3	76.3	78.2	63	62.8	2	6	90	0.00	30.223 
13:45	76.3	76.3	78.2	64	63.2	2	5	90	0.00	30.223 
13:50	76.3	76.3	78.2	62	62.3	2	7	90	0.00	30.223 
13:55	76.5	76.5	78.3	63	62.9	2	4	90	0.00	30.223 
14:00	76.3	76.3	78.2	62	62.3	2	8	90	0.00	30.223 
14:05	76.3	76.3	78.2	63	62.8	2	6	90	0.00	30.223 
14:10	76.5	76.5	78.4	62	62.5	3	6	90	0.00	30.223 
14:15	76.8	76.8	78.6	60	61.8	3	9	90	0.00	30.222 
14:20	76.7	76.7	78.5	60	61.7	2	7	90	0.00	30.222 
14:25	76.5	76.5	78.4	62	62.5	2	5	90	0.00	30.222 
14:30	77.2	77.2	79.0	62	63.2	2	4	112	0.00	30.218 
14:35	77.4	77.4	79.1	59	61.9	3	8	90	0.00	30.218 
14:40	77.2	77.2	78.9	58	61.3	2	4	112	0.00	30.218 
14:45	76.7	76.7	78.5	59	61.3	2	9	90	0.00	30.216 
14:50	76.3	76.3	78.2	62	62.3	2	5	90	0.00	30.216 
14:55	76.7	76.7	78.5	59	61.3	2	8	90	0.00	30.216 
15:00	77.4	77.4	79.1	57	61.0	1	4	112	0.00	30.208 
15:05	77.9	77.9	79.4	56	60.9	3	11	90	0.00	30.208 
15:10	78.3	78.3	79.6	52	59.2	3	7	90	0.00	30.208 
15:15	78.6	78.6	79.9	54	60.5	3	10	90	0.00	30.206 
15:20	79.0	79.0	80.1	52	59.8	3	6	90	0.00	30.206 
15:25	79.2	79.2	80.3	52	60.0	2	5	112	0.00	30.206 
15:30	79.4	79.4	80.3	50	59.1	3	7	90	0.00	30.207 
15:35	78.6	78.6	79.7	51	58.9	3	9	90	0.00	30.207 
15:40	78.5	78.5	79.6	51	58.8	2	7	90	0.00	30.207 
15:45	78.3	78.3	79.6	52	59.2	2	5	112	0.00	30.207 
15:50	77.9	77.9	79.3	52	58.8	1	3	90	0.00	30.207 
15:55	77.9	77.9	79.3	52	58.8	2	4	90	0.00	30.207 
16:00	78.3	78.3	79.5	51	58.7	3	6	90	0.00	30.204 
16:05	78.8	78.8	79.7	49	58.0	3	7	112	0.00	30.204 
16:10	79.2	79.2	80.2	51	59.5	2	5	112	0.00	30.204 
16:15	79.2	79.2	80.1	49	58.4	3	10	90	0.00	30.199 
16:20	79.2	79.2	80.3	52	60.0	3	6	112	0.00	30.199 
16:25	79.2	79.2	80.4	53	60.6	2	7	112	0.00	30.199 
16:30	79.2	79.2	80.1	50	58.9	3	8	112	0.00	30.200 
16:35	78.8	78.8	79.9	52	59.7	3	10	112	0.00	30.200 
16:40	78.5	78.5	79.9	55	61.0	1	3	112	0.00	30.200 
16:45	78.3	78.3	79.6	53	59.7	1	4	112	0.00	30.195 
16:50	78.1	78.1	79.5	54	60.1	2	5	90	0.00	30.195 
16:55	78.3	78.3	79.7	54	60.3	1	6	112	0.00	30.195 
17:00	78.3	78.3	79.6	52	59.2	2	7	112	0.00	30.191 
17:05	78.5	78.5	79.6	50	58.3	2	4	68	0.00	30.191 
17:10	78.5	78.5	79.6	51	58.8	1	4	68	0.00	30.191 
17:15	78.6	78.6	79.8	52	59.5	2	7	112	0.00	30.192 
17:20	78.6	78.6	79.6	49	57.8	2	5	90	0.00	30.192 
17:25	78.5	78.5	79.4	47	56.6	3	7	90	0.00	30.192 
17:30	78.5	78.5	79.5	48	57.2	3	8	90	0.00	30.190 
17:35	78.3	78.3	79.4	49	57.5	2	7	90	0.00	30.190 
17:40	78.3	78.3	79.3	48	57.0	3	7	90	0.00	30.190 
17:45	78.3	78.3	79.4	49	57.5	2	4	90	0.00	30.189 
17:50	78.3	78.3	79.6	52	59.2	1	3	90	0.00	30.189 
17:55	78.3	78.3	79.4	50	58.1	2	9	112	0.00	30.189 
18:00	78.3	78.3	79.3	48	57.0	4	9	90	0.00	30.188 
18:05	78.1	78.1	79.3	50	57.9	3	7	112	0.00	30.188 
18:10	77.7	77.7	79.1	51	58.1	2	4	112	0.00	30.188 
18:15	77.6	77.6	79.0	50	57.5	3	8	90	0.00	30.191 
18:20	77.9	77.9	79.2	50	57.7	3	9	90	0.00	30.191 
18:25	77.9	77.9	79.2	50	57.7	3	9	90	0.00	30.191 
18:30	77.4	77.4	78.9	53	58.9	3	9	112	0.00	30.192 
18:35	76.8	76.8	78.6	54	58.9	1	5	112	0.00	30.192 
18:40	76.3	76.3	78.3	55	58.9	1	2	112	0.00	30.192 
18:45	76.0	76.0	78.1	56	59.2	2	5	112	0.00	30.195 
18:50	75.6	75.6	77.8	56	58.8	2	5	112	0.00	30.195 
18:55	75.4	75.4	77.7	56	58.6	2	5	112	0.00	30.195 
19:00	75.4	75.4	77.7	57	59.1	2	4	90	0.00	30.194 
19:05	75.3	75.3	77.6	57	59.0	1	4	90	0.00	30.194 
19:10	75.3	75.3	77.6	58	59.5	1	3	90	0.00	30.194 
19:15	75.1	75.1	77.5	59	59.8	1	4	90	0.00	30.195 
19:20	75.1	75.1	77.5	59	59.8	2	9	90	0.00	30.195 
19:25	74.9	74.9	74.9	58	59.1	2	5	90	0.00	30.195 
19:30	74.9	74.9	74.9	58	59.1	1	3	112	0.00	30.194 
19:35	74.7	74.7	74.7	55	57.4	2	6	90	0.00	30.194 
19:40	74.6	74.6	74.6	56	57.8	2	4	90	0.00	30.194 
19:45	74.2	74.2	74.2	56	57.5	1	4	90	0.00	30.196 
19:50	73.9	73.9	73.9	56	57.2	1	2	112	0.00	30.196 
19:55	73.7	73.7	73.7	56	57.0	2	6	90	0.00	30.196 
20:00	73.5	73.5	73.5	57	57.3	1	4	90	0.00	30.196 
20:05	73.2	73.2	73.2	57	57.0	2	5	90	0.00	30.196 
20:10	72.8	72.8	72.8	57	56.7	2	5	112	0.00	30.196 
20:15	72.7	72.7	72.7	58	57.1	2	4	112	0.00	30.199 
20:20	72.3	72.3	72.3	58	56.7	2	4	90	0.00	30.199 
20:25	72.1	72.1	72.1	59	57.0	2	4	90	0.00	30.199 
20:30	71.8	71.8	71.8	60	57.2	1	3	112	0.00	30.203 
20:35	71.5	71.5	71.5	60	56.9	1	4	90	0.00	30.203 
20:40	71.3	71.3	71.3	60	56.7	2	5	90	0.00	30.203 
20:45	71.1	71.1	71.1	61	57.0	2	4	90	0.00	30.207 
20:50	70.9	70.9	70.9	61	56.8	1	4	90	0.00	30.207 
20:55	70.6	70.6	70.6	62	56.9	1	3	112	0.00	30.207 
21:00	70.3	70.3	70.3	63	57.1	1	3	112	0.00	30.214 
21:05	69.9	69.9	69.9	64	57.2	1	4	90	0.00	30.214 
21:10	69.6	69.6	69.6	65	57.3	0	1	90	0.00	30.214 
21:15	69.1	69.1	69.1	66	57.3	1	3	90	0.00	30.214 
21:20	68.8	68.8	68.8	67	57.4	0	2	90	0.00	30.214 
21:25	68.4	68.4	68.4	68	57.4	0	2	90	0.00	30.214 
21:30	68.3	68.3	68.3	68	57.3	0	1	90	0.00	30.215 
21:35	67.9	67.9	67.9	69	57.3	0	1	90	0.00	30.215 
21:40	67.6	67.6	67.6	70	57.5	0	2	90	0.00	30.215 
21:45	67.4	67.4	67.4	70	57.3	0	2	90	0.00	30.220 
21:50	67.1	67.1	67.1	71	57.4	0	2	90	0.00	30.220 
21:55	66.9	66.9	66.9	71	57.2	0	1	90	0.00	30.220 
22:00	66.8	66.8	66.8	72	57.5	0	0	---	0.00	30.223 
22:05	66.4	66.4	66.4	72	57.1	0	0	---	0.00	30.223 
22:10	66.3	66.3	66.3	73	57.4	0	0	---	0.00	30.223 
22:15	66.0	66.0	66.0	74	57.5	0	0	---	0.00	30.223 
22:20	65.6	65.6	65.6	75	57.5	0	0	---	0.00	30.223 
22:25	65.5	65.5	65.5	76	57.7	0	1	90	0.00	30.223 
22:30	65.3	65.3	65.3	77	57.9	0	1	90	0.00	30.226 
22:35	65.3	65.3	65.3	78	58.3	0	0	---	0.00	30.226 
22:40	65.2	65.2	65.2	79	58.5	0	1	90	0.00	30.226 
22:45	65.3	65.3	65.3	80	59.0	0	3	90	0.00	30.226 
22:50	65.5	65.5	65.5	81	59.5	0	2	90	0.00	30.226 
22:55	65.5	65.5	65.5	81	59.5	0	1	90	0.00	30.226 
23:00	65.5	65.5	65.5	81	59.5	0	2	90	0.00	30.223 
23:05	65.3	65.3	65.3	82	59.7	0	2	90	0.00	30.223 
23:10	65.3	65.3	65.3	82	59.7	0	2	90	0.00	30.223 
23:15	65.3	65.3	65.3	82	59.7	0	2	90	0.00	30.222 
23:20	65.2	65.2	65.2	83	59.9	0	2	90	0.00	30.222 
23:25	65.2	65.2	65.2	83	59.9	1	2	90	0.00	30.222 
23:30	65.2	65.2	65.2	84	60.2	0	2	90	0.00	30.217 
23:35	65.0	65.0	65.0	84	60.0	0	1	90	0.00	30.217 
23:40	65.0	65.0	65.0	84	60.0	1	5	90	0.00	30.217 
23:45	65.0	65.0	65.0	85	60.4	0	2	90	0.00	30.217 
23:50	64.8	64.8	64.8	85	60.2	0	1	90	0.00	30.217 
23:55	64.7	64.7	64.7	85	60.1	0	1	90	0.00	30.217 

CoCoRaHS
IN-AL-39
A2 Web Hosting
Creative Commons License
GoDaddy
search engine by freefind advanced

loaded 2018-11-20 02:25:01 • last modified 2010-11-18 10:43:29
Privacy PolicyDisclaimer
• wx.awcolley.com is powered by PmWiki v.2002016 •
• all content (unless otherwise noted) © 2018 A W Colley